Flight Track Log - Related Links

Times and Time Zones

All times are in EDT time to prevent confusion due to time zone crossing. See the EJA941 flight status page for this flight to view local times or setup timezone preferences in your user account.

Time Position Orientation Groundspeed Altitude Reporting Facility
EDT Latitude Longitude Course Direction KTS MPH feet Rate Location/Type
Sun 12:44:50 PM 33.4333 -112.0000 79° East 170 196 1,800  Level Phoenix TRACON
Sun 12:46:14 PM 33.4500 -111.9000 79° East 224 258 7,100 3,971 Climbing Phoenix TRACON
Sun 12:47:09 PM 33.4833 -111.8500 51° Northeast 254 292 11,000 3,277 Climbing Phoenix TRACON
Sun 12:48:24 PM 33.5697 -111.9217 325° Northwest 312 359 14,200 2,584 Climbing Albuquerque Center
Sun 12:49:26 PM 33.6528 -111.9953 324° Northwest 358 412 16,900 2,226 Climbing Albuquerque Center
Sun 12:50:28 PM 33.7336 -112.0681 323° Northwest 371 427 18,800 1,839 Climbing Albuquerque Center
Sun 12:51:30 PM 33.8186 -112.1442 323° Northwest 375 432 20,700 1,790 Climbing Albuquerque Center
Sun 12:52:32 PM 33.9053 -112.2228 323° Northwest 385 443 22,500 1,597 Climbing Albuquerque Center
Sun 12:53:34 PM 33.9942 -112.3044 323° Northwest 397 457 24,000 726 Climbing Albuquerque Center
Sun 12:54:36 PM 34.0797 -112.4100 314° West 440 506 24,000  Level Albuquerque Center
Sun 12:55:38 PM 34.1889 -112.5494 313° West 473 544 24,000  Level Albuquerque Center
Sun 12:56:40 PM 34.2850 -112.6686 314° West 490 564 24,000  Level Albuquerque Center
Sun 12:57:42 PM 34.3761 -112.7867 313° West 482 555 24,000  Level Albuquerque Center
Sun 12:58:44 PM 34.4706 -112.9050 314° West 477 549 24,000  Level Albuquerque Center
Sun 12:59:46 PM 34.5572 -113.0169 313° West 461 531 24,000  Level Albuquerque Center
Sun 01:00:48 PM 34.6428 -113.1258 314° West 450 518 24,000  Level Albuquerque Center
Sun 01:01:50 PM 34.7269 -113.2339 313° West 442 509 24,000  Level Albuquerque Center
Sun 01:02:52 PM 34.8261 -113.3656 313° West 440 506 24,000  Level Albuquerque Center
Sun 01:03:54 PM 34.9092 -113.4719 314° West 435 501 24,000  Level Albuquerque Center
Sun 01:04:51 PM 34.9928 -113.5825 313° West 439 505 24,000  Level Los Angeles Center
Sun 01:05:53 PM 35.0767 -113.6903 314° West 438 504 24,000  Level Los Angeles Center
Sun 01:06:55 PM 35.1592 -113.7997 313° West 438 504 24,000  Level Los Angeles Center
Sun 01:07:57 PM 35.2411 -113.9097 312° West 438 504 24,000 -823 Level Los Angeles Center
Sun 01:08:59 PM 35.3167 -113.9875 320° Northwest 448 516 22,300 -2,496 Descending Los Angeles Center
Sun 01:10:02 PM 35.4603 -114.1217 323° Northwest 458 527 18,800 -2,784 Descending Los Angeles Center
Sun 01:11:04 PM 35.5511 -114.2036 324° Northwest 415 478 16,500 -2,092 Descending Los Angeles Center
Sun 01:11:51 PM 35.6092 -114.2622 321° Northwest 364 419 15,000 -1,694 Descending Los Angeles Center
Sun 01:13:08 PM 35.6969 -114.3403 324° Northwest 324 373 13,000 -1,406 Descending Los Angeles Center
Sun 01:13:59 PM 35.7647 -114.3950 327° Northwest 313 360 12,000 -484 Descending Los Angeles Center
Sun 01:15:12 PM 35.8525 -114.4336 340° North 317 365 12,000 -234 Level Los Angeles Center
Sun 01:16:07 PM 35.9389 -114.4769 338° Northwest 308 354 11,500 -764 Descending Los Angeles Center
Sun 01:17:02 PM 36.0119 -114.5136 338° Northwest 306 352 10,600 -1,636 Descending Los Angeles Center
Sun 01:17:57 PM 36.0869 -114.5494 339° North 312 359 8,500 -1,688 Descending Los Angeles Center
Sun 01:19:10 PM 36.1675 -114.6103 329° Northwest 279 321 7,000 -677 Descending Los Angeles Center
Sun 01:20:10 PM 36.1600 -114.6928 264° West 247 284 7,000  Level Los Angeles Center
Sun 01:21:00 PM 36.1544 -114.7561 264° West 242 278 7,000  Level Los Angeles Center
Sun 01:21:54 PM 36.1486 -114.8272 264° West 232 267 7,000  Level Los Angeles Center
Sun 01:22:27 PM 36.1411 -114.8708 258° West 235 270 7,000 -253 Level Los Angeles Center
Sun 01:23:29 PM 36.1342 -114.9436 263° West 220 253 6,600 -1,065 Descending Los Angeles Center
Sun 01:24:31 PM 36.1347 -115.0125 271° West 206 237 4,800 -1,306 Descending Los Angeles Center
Sun 01:25:33 PM 36.1394 -115.0750 275° West 195 224 3,900 -978 Descending Los Angeles Center
Sun 01:26:03 PM 36.1344 -115.1089 260° West 158 182 3,300 -871 Descending Los Angeles Center
Sun 01:26:35 PM 36.1314 -115.1278 259° West 174 200 3,000 -766 Descending Los Angeles Center
Sun 01:27:37 PM 36.0997 -115.1572 217° Southwest 154 177 2,100 -871 Descending Los Angeles Center
Sun 01:29:00 PM 36.0801 -115.1523 270° West  Level Estimated

Login

Don't have an account? Register now (free) for customized features, flight alerts, and more!